TMCAT11 KNKX-KNID
Flight info
| Callsign | TMCAT11 |
|---|---|
| Flight time | N/A |
| Altitude | 19000 |
| Route | DCT |
| Aircraft | F35/M-SDFIRY/LB1 |
Departure
| Time | 2026-04-26 23:19 |
|---|---|
| Airport | Miramar Marine Corps Air Station - Mitscher Field (KNKX) |
Arrival
| Time | N/A |
|---|---|
| Airport | China Lake Naws (Armitage Field) Airport (KNID) |
| Time | Latitude | Longitude | Altitude | Speed | Heading |
|---|---|---|---|---|---|
| 2026-04-26 23:19 | 32.88620 | -117.23931 | 3098 ft | 263 kts | 7° |
| 2026-04-26 23:19 | 32.90548 | -117.23509 | 4355 ft | 323 kts | 8° |
| 2026-04-26 23:20 | 32.92690 | -117.22984 | 8133 ft | 319 kts | 9° |
| 2026-04-26 23:20 | 32.94883 | -117.22399 | 13000 ft | 327 kts | 7° |
| 2026-04-26 23:20 | 32.97398 | -117.21722 | 17277 ft | 416 kts | 11° |
| 2026-04-26 23:20 | 33.00557 | -117.20878 | 18944 ft | 548 kts | 7° |
| 2026-04-26 23:21 | 33.04632 | -117.19854 | 18990 ft | 605 kts | 7° |
| 2026-04-26 23:21 | 33.08831 | -117.18970 | 19176 ft | 611 kts | 360° |
| 2026-04-26 23:21 | 33.13041 | -117.18989 | 19171 ft | 602 kts | 348° |
| 2026-04-26 23:21 | 33.17221 | -117.19840 | 19140 ft | 618 kts | 343° |
| 2026-04-26 23:22 | 33.21443 | -117.20941 | 19122 ft | 624 kts | 345° |
| 2026-04-26 23:22 | 33.25722 | -117.21675 | 19561 ft | 630 kts | 348° |
| 2026-04-26 23:22 | 33.30039 | -117.22493 | 19805 ft | 628 kts | 345° |
| 2026-04-26 23:22 | 33.34367 | -117.23343 | 19918 ft | 630 kts | 347° |
| 2026-04-26 23:23 | 33.38695 | -117.24131 | 19968 ft | 629 kts | 346° |
| 2026-04-26 23:23 | 33.43038 | -117.25000 | 20012 ft | 650 kts | 347° |
| 2026-04-26 23:23 | 33.47544 | -117.25827 | 20093 ft | 657 kts | 347° |
| 2026-04-26 23:23 | 33.52073 | -117.26712 | 20122 ft | 660 kts | 347° |
| 2026-04-26 23:24 | 33.56618 | -117.27573 | 20103 ft | 655 kts | 347° |
| 2026-04-26 23:24 | 33.61189 | -117.28454 | 20088 ft | 695 kts | 347° |
| 2026-04-26 23:24 | 33.66052 | -117.29383 | 20082 ft | 714 kts | 348° |
| 2026-04-26 23:24 | 33.71088 | -117.30351 | 20075 ft | 760 kts | 347° |
| 2026-04-26 23:25 | 33.76492 | -117.31390 | 20071 ft | 799 kts | 348° |
| 2026-04-26 23:25 | 33.82021 | -117.32447 | 20055 ft | 806 kts | 347° |
| 2026-04-26 23:25 | 33.87502 | -117.33515 | 20047 ft | 809 kts | 348° |
| 2026-04-26 23:25 | 33.93072 | -117.34573 | 20040 ft | 811 kts | 348° |
| 2026-04-26 23:26 | 33.98641 | -117.35669 | 20047 ft | 811 kts | 348° |
| 2026-04-26 23:26 | 34.04221 | -117.36726 | 20041 ft | 811 kts | 348° |
| 2026-04-26 23:26 | 34.09793 | -117.37832 | 20032 ft | 813 kts | 348° |
| 2026-04-26 23:26 | 34.15360 | -117.38885 | 19464 ft | 807 kts | 348° |
| 2026-04-26 23:27 | 34.20883 | -117.39987 | 18754 ft | 801 kts | 348° |
| 2026-04-26 23:27 | 34.26380 | -117.41024 | 18031 ft | 794 kts | 348° |
| 2026-04-26 23:27 | 34.31804 | -117.42115 | 17233 ft | 787 kts | 348° |
| 2026-04-26 23:27 | 34.35380 | -117.42789 | 16716 ft | 782 kts | 349° |
| 2026-04-26 23:28 | 34.42535 | -117.44210 | 16209 ft | 777 kts | 348° |
| 2026-04-26 23:28 | 34.47879 | -117.45220 | 16072 ft | 775 kts | 349° |
| 2026-04-26 23:28 | 34.53193 | -117.46294 | 16022 ft | 774 kts | 348° |
| 2026-04-26 23:28 | 34.58511 | -117.47305 | 16000 ft | 773 kts | 349° |
| 2026-04-26 23:29 | 34.63797 | -117.48372 | 15651 ft | 747 kts | 347° |
| 2026-04-26 23:29 | 34.68470 | -117.49385 | 8399 ft | 687 kts | 348° |
| 2026-04-26 23:29 | 34.73166 | -117.50446 | 8670 ft | 691 kts | 347° |
| 2026-04-26 23:29 | 34.77456 | -117.51371 | 8815 ft | 547 kts | 348° |
| 2026-04-26 23:30 | 34.80825 | -117.52018 | 8863 ft | 441 kts | 348° |
| 2026-04-26 23:30 | 34.83621 | -117.52485 | 8868 ft | 373 kts | 348° |
| 2026-04-26 23:30 | 34.86060 | -117.52826 | 8857 ft | 350 kts | 349° |
| 2026-04-26 23:30 | 34.88470 | -117.53119 | 8856 ft | 349 kts | 351° |
| 2026-04-26 23:31 | 34.90860 | -117.53373 | 8863 ft | 347 kts | 351° |
| 2026-04-26 23:31 | 34.93279 | -117.53591 | 8877 ft | 347 kts | 352° |
| 2026-04-26 23:31 | 34.95695 | -117.53769 | 8875 ft | 348 kts | 352° |
| 2026-04-26 23:31 | 34.98088 | -117.53906 | 8880 ft | 348 kts | 353° |
| 2026-04-26 23:32 | 35.00489 | -117.54005 | 8889 ft | 349 kts | 354° |
| 2026-04-26 23:32 | 35.02923 | -117.54064 | 8893 ft | 350 kts | 355° |
| 2026-04-26 23:32 | 35.05356 | -117.54085 | 8890 ft | 350 kts | 356° |
| 2026-04-26 23:32 | 35.07792 | -117.54067 | 8893 ft | 350 kts | 356° |
| 2026-04-26 23:33 | 35.10228 | -117.54011 | 8885 ft | 351 kts | 356° |
| 2026-04-26 23:33 | 35.12672 | -117.53915 | 8890 ft | 351 kts | 358° |
| 2026-04-26 23:33 | 35.15114 | -117.53778 | 8888 ft | 353 kts | 359° |
| 2026-04-26 23:33 | 35.17560 | -117.53602 | 8890 ft | 353 kts | 359° |
| 2026-04-26 23:34 | 35.20015 | -117.53388 | 8887 ft | 354 kts | 360° |
| 2026-04-26 23:34 | 35.22472 | -117.53133 | 8889 ft | 355 kts | 1° |
| 2026-04-26 23:34 | 35.24932 | -117.52837 | 8895 ft | 356 kts | 2° |
| 2026-04-26 23:34 | 35.27390 | -117.52501 | 8881 ft | 354 kts | 2° |
| 2026-04-26 23:35 | 35.29853 | -117.52124 | 8877 ft | 355 kts | 4° |
| 2026-04-26 23:35 | 35.32319 | -117.51707 | 8876 ft | 357 kts | 4° |
| 2026-04-26 23:35 | 35.34783 | -117.51253 | 8873 ft | 358 kts | 5° |
| 2026-04-26 23:35 | 35.37179 | -117.50770 | 8861 ft | 348 kts | 6° |
| 2026-04-26 23:36 | 35.39583 | -117.50246 | 8867 ft | 350 kts | 8° |
| 2026-04-26 23:36 | 35.41995 | -117.49680 | 8855 ft | 353 kts | 7° |
| 2026-04-26 23:36 | 35.44394 | -117.49078 | 8845 ft | 352 kts | 9° |
| 2026-04-26 23:36 | 35.46794 | -117.48437 | 8858 ft | 353 kts | 10° |
| 2026-04-26 23:37 | 35.49196 | -117.47757 | 8847 ft | 353 kts | 11° |
| 2026-04-26 23:37 | 35.51588 | -117.47038 | 8846 ft | 354 kts | 12° |
| 2026-04-26 23:37 | 35.53982 | -117.46279 | 8842 ft | 355 kts | 13° |
| 2026-04-26 23:37 | 35.56370 | -117.45480 | 8841 ft | 355 kts | 13° |
| 2026-04-26 23:38 | 35.58752 | -117.44641 | 8848 ft | 354 kts | 15° |
| 2026-04-26 23:38 | 35.61126 | -117.43764 | 8864 ft | 357 kts | 15° |
| 2026-04-26 23:38 | 35.63496 | -117.42847 | 8852 ft | 358 kts | 16° |
| 2026-04-26 23:38 | 35.65859 | -117.41890 | 8837 ft | 359 kts | 17° |
| 2026-04-26 23:39 | 35.68210 | -117.40896 | 8828 ft | 358 kts | 18° |
| 2026-04-26 23:39 | 35.70552 | -117.39863 | 8825 ft | 357 kts | 19° |
| 2026-04-26 23:39 | 35.72096 | -117.39161 | 8829 ft | 356 kts | 19° |
| 2026-04-26 23:39 | 35.75345 | -117.38761 | 8527 ft | 347 kts | 346° |
| 2026-04-26 23:40 | 35.77475 | -117.39802 | 8127 ft | 337 kts | 327° |
| 2026-04-26 23:40 | 35.79481 | -117.41324 | 8186 ft | 341 kts | 323° |
| 2026-04-26 23:40 | 35.81234 | -117.43261 | 8211 ft | 338 kts | 301° |
| 2026-04-26 23:40 | 35.82071 | -117.45898 | 8162 ft | 334 kts | 274° |
| 2026-04-26 23:41 | 35.81822 | -117.48724 | 8051 ft | 314 kts | 250° |
| 2026-04-26 23:41 | 35.81084 | -117.51077 | 7584 ft | 281 kts | 245° |
| 2026-04-26 23:41 | 35.80489 | -117.52423 | 7123 ft | 262 kts | 232° |
| 2026-04-26 23:41 | 35.79339 | -117.54033 | 6480 ft | 238 kts | 225° |
| 2026-04-26 23:42 | 35.78216 | -117.55366 | 6112 ft | 217 kts | 223° |
| 2026-04-26 23:42 | 35.76126 | -117.57991 | 5531 ft | 215 kts | 232° |
| 2026-04-26 23:42 | 35.75232 | -117.59416 | 4870 ft | 208 kts | 233° |
| 2026-04-26 23:43 | 35.74413 | -117.60843 | 4382 ft | 203 kts | 236° |
| 2026-04-26 23:43 | 35.73669 | -117.62284 | 3815 ft | 199 kts | 238° |
| 2026-04-26 23:43 | 35.72866 | -117.63678 | 3363 ft | 209 kts | 233° |
| 2026-04-26 23:43 | 35.72038 | -117.65134 | 3163 ft | 203 kts | 234° |
| 2026-04-26 23:44 | 35.71233 | -117.66552 | 2788 ft | 194 kts | 233° |
| 2026-04-26 23:44 | 35.70311 | -117.67775 | 2449 ft | 196 kts | 223° |
| 2026-04-26 23:44 | 35.69296 | -117.68915 | 2220 ft | 194 kts | 223° |
| 2026-04-26 23:44 | 35.68095 | -117.70254 | 2577 ft | 271 kts | 222° |
| 2026-04-26 23:45 | 35.66630 | -117.71884 | 4095 ft | 294 kts | 224° |
| 2026-04-26 23:45 | 35.64906 | -117.73795 | 6461 ft | 397 kts | 224° |
| 2026-04-26 23:45 | 35.62476 | -117.76520 | 7568 ft | 537 kts | 223° |
| 2026-04-26 23:45 | 35.59514 | -117.79920 | 8408 ft | 621 kts | 227° |
| 2026-04-26 23:46 | 35.56808 | -117.84342 | 9274 ft | 681 kts | 241° |
| 2026-04-26 23:46 | 35.54883 | -117.89880 | 10121 ft | 729 kts | 254° |
| 2026-04-26 23:46 | 35.53960 | -117.96155 | 10937 ft | 762 kts | 266° |
| 2026-04-26 23:46 | 35.54144 | -118.02654 | 11752 ft | 783 kts | 278° |
| 2026-04-26 23:47 | 35.55470 | -118.09205 | 12584 ft | 800 kts | 289° |
| 2026-04-26 23:47 | 35.57901 | -118.15392 | 13437 ft | 812 kts | 301° |
| 2026-04-26 23:47 | 35.61130 | -118.21140 | 14243 ft | 818 kts | 305° |
| 2026-04-26 23:47 | 35.64522 | -118.26781 | 15008 ft | 823 kts | 306° |
| 2026-04-26 23:48 | 35.67903 | -118.32480 | 15783 ft | 828 kts | 305° |
| 2026-04-26 23:48 | 35.71228 | -118.38302 | 16562 ft | 832 kts | 303° |